createdAt,value
2023-01-19T05:25:42.348Z,98637.94
2023-01-19T05:28:56.646Z,98637.94
2023-01-19T05:32:10.806Z,98649.78
2023-01-19T05:35:35.662Z,98660.75
2023-01-19T05:38:50.008Z,98671.16
2023-01-19T05:42:05.644Z,98667.84
2023-01-19T05:45:19.600Z,98646.47
2023-01-19T05:48:33.564Z,98651.25
2023-01-19T05:51:47.192Z,98655.84
2023-01-19T05:55:01.037Z,98648.97
2023-01-19T05:58:16.090Z,98646.56
2023-01-19T06:01:29.964Z,98624.44
2023-01-19T06:04:43.541Z,98611.03
2023-01-19T06:07:57.865Z,98619.78
2023-01-19T06:11:11.863Z,98629.50
2023-01-19T06:14:26.869Z,98623.94
2023-01-19T06:17:40.749Z,98623.38
2023-01-19T06:20:58.817Z,98658.00
2023-01-19T06:24:14.493Z,98658.50
2023-01-19T06:27:28.679Z,98651.59
2023-01-19T06:30:43.680Z,98656.62
2023-01-19T06:33:57.515Z,98644.44
2023-01-19T06:37:12.221Z,98634.19
2023-01-19T06:40:26.071Z,98623.97
2023-01-19T06:43:40.001Z,98635.75
2023-01-19T06:47:15.872Z,98642.03
2023-01-19T06:50:28.818Z,98653.50
2023-01-19T06:53:42.688Z,98650.38
2023-01-19T06:56:56.272Z,98651.22
2023-01-19T07:00:11.899Z,98651.78
2023-01-19T07:03:27.307Z,98665.63
2023-01-19T07:06:41.693Z,98672.34
2023-01-19T07:09:55.741Z,98656.81
2023-01-19T07:13:09.623Z,98674.09
2023-01-19T07:16:23.774Z,98662.44
2023-01-19T07:19:39.187Z,98651.41
2023-01-19T07:22:56.967Z,98654.13
2023-01-19T07:26:10.932Z,98652.47
2023-01-19T07:29:24.925Z,98643.28
2023-01-19T07:32:39.111Z,98655.47
2023-01-19T07:35:54.531Z,98681.13
2023-01-19T07:39:08.425Z,98689.69
2023-01-19T07:42:21.996Z,98698.66
2023-01-19T07:45:36.206Z,98693.72
2023-01-19T07:48:50.441Z,98694.09
2023-01-19T07:52:05.905Z,98708.72
2023-01-19T07:55:19.863Z,98700.22
2023-01-19T07:58:33.382Z,98699.22
2023-01-19T08:01:47.263Z,98700.19
2023-01-19T08:05:01.243Z,98695.25
2023-01-19T08:08:16.556Z,98689.22
2023-01-19T08:11:30.455Z,98685.38
2023-01-19T08:14:44.100Z,98679.03
2023-01-19T08:17:58.990Z,98685.94
2023-01-19T08:21:12.969Z,98683.34
2023-01-19T08:24:29.212Z,98682.09
2023-01-19T08:27:43.175Z,98684.34
2023-01-19T08:30:57.111Z,98688.88
2023-01-19T08:34:11.711Z,98694.31
2023-01-19T08:37:25.601Z,98697.16
2023-01-19T08:40:41.398Z,98704.41
2023-01-19T08:43:55.353Z,98701.81
2023-01-19T08:47:09.601Z,98703.81
2023-01-19T08:50:23.673Z,98708.44
2023-01-19T08:53:37.633Z,98705.28
2023-01-19T08:56:52.651Z,98706.69
2023-01-19T09:00:07.948Z,98695.25
2023-01-19T09:03:22.807Z,98696.78
2023-01-19T09:06:37.046Z,98689.75
2023-01-19T09:09:51.149Z,98696.16
2023-01-19T09:13:08.685Z,98686.75
2023-01-19T09:16:22.668Z,98683.81
2023-01-19T09:19:36.625Z,98680.34
2023-01-19T09:22:50.216Z,98685.38
2023-01-19T09:26:05.116Z,98695.16
2023-01-19T09:29:20.790Z,98697.63
2023-01-19T09:32:38.720Z,98697.22
2023-01-19T09:35:53.729Z,98698.37
2023-01-19T09:39:07.690Z,98701.34
2023-01-19T09:42:22.329Z,98692.63
2023-01-19T09:45:37.815Z,98702.28
2023-01-19T09:48:52.952Z,98695.56
2023-01-19T09:52:07.060Z,98702.94
2023-01-19T09:55:22.117Z,98708.47
2023-01-19T09:58:36.118Z,98706.44
2023-01-19T10:02:18.309Z,98703.59
2023-01-19T10:05:33.192Z,98713.72
2023-01-19T10:08:50.982Z,98728.25
2023-01-19T10:12:09.069Z,98715.72
2023-01-19T10:15:29.018Z,98706.25
2023-01-19T10:18:48.443Z,98709.53
2023-01-19T10:22:05.011Z,98710.91
2023-01-19T10:25:22.235Z,98715.84
2023-01-19T10:28:36.650Z,98719.41
2023-01-19T10:31:51.243Z,98722.25
2023-01-19T10:35:14.223Z,98724.75
2023-01-19T10:38:29.159Z,98724.66
2023-01-19T10:41:43.897Z,98726.34
2023-01-19T10:44:58.000Z,98725.22
2023-01-19T10:48:13.168Z,98712.41
2023-01-19T10:51:28.739Z,98707.91
2023-01-19T10:54:44.114Z,98707.91
2023-01-19T10:57:58.337Z,98709.78
2023-01-19T11:01:17.358Z,98701.09
2023-01-19T11:04:31.436Z,98707.19
2023-01-19T11:07:46.831Z,98708.03
2023-01-19T11:11:04.469Z,98715.50
2023-01-19T11:14:20.802Z,98712.75
2023-01-19T11:17:34.693Z,98725.69
2023-01-19T11:20:49.749Z,98730.56
2023-01-19T11:24:06.514Z,98730.28
2023-01-19T11:27:21.024Z,98724.62
2023-01-19T11:30:34.974Z,98741.25
2023-01-19T11:33:51.029Z,98748.63
2023-01-19T11:37:05.984Z,98745.69
2023-01-19T11:40:21.484Z,98745.34
2023-01-19T11:43:48.185Z,98747.00
2023-01-19T11:47:03.705Z,98753.28
2023-01-19T11:50:23.955Z,98745.56
2023-01-19T11:53:37.909Z,98744.00
2023-01-19T11:56:53.332Z,98744.50
2023-01-19T12:00:18.945Z,98739.00
2023-01-19T12:03:34.246Z,98748.81
2023-01-19T12:06:50.342Z,98755.06
2023-01-19T12:10:24.823Z,98756.72
2023-01-19T12:13:40.285Z,98769.25
2023-01-19T12:16:57.504Z,98785.84
2023-01-19T12:20:18.356Z,98792.28
2023-01-19T12:23:45.377Z,98797.81
2023-01-19T12:27:00.899Z,98796.44
2023-01-19T12:30:21.347Z,98802.09
2023-01-19T12:33:36.111Z,98791.03
2023-01-19T12:36:50.521Z,98799.09
2023-01-19T12:40:06.911Z,98812.31
2023-01-19T12:43:20.874Z,98819.63
2023-01-19T12:46:36.185Z,98825.16
2023-01-19T12:49:51.048Z,98827.22
2023-01-19T12:53:07.967Z,98825.28
2023-01-19T12:56:21.885Z,98834.09
2023-01-19T12:59:36.694Z,98840.00
2023-01-19T13:02:52.946Z,98837.69
2023-01-19T13:06:07.403Z,98854.03
2023-01-19T13:09:31.023Z,98860.97
2023-01-19T13:13:14.907Z,98877.47
2023-01-19T13:16:52.368Z,98878.41
2023-01-19T13:20:28.164Z,98868.81
2023-01-19T13:23:54.001Z,98875.47
2023-01-19T13:27:12.586Z,98899.81
2023-01-19T13:30:28.638Z,98900.75
2023-01-19T13:33:49.839Z,98900.22
2023-01-19T13:37:06.513Z,98919.34
2023-01-19T13:40:23.883Z,98921.13
2023-01-19T13:43:38.490Z,98925.97
2023-01-19T13:46:52.625Z,98926.66
2023-01-19T13:50:07.630Z,98925.75
2023-01-19T13:53:24.410Z,98914.06
2023-01-19T13:56:40.348Z,98917.78
2023-01-19T14:00:08.987Z,98933.78
2023-01-19T14:03:23.797Z,98945.16
2023-01-19T14:06:39.380Z,98955.13
2023-01-19T14:10:04.861Z,98959.66
2023-01-19T14:13:19.675Z,98962.75
2023-01-19T14:16:33.817Z,98968.69
2023-01-19T14:19:50.904Z,98964.78
2023-01-19T14:23:04.908Z,98954.47
2023-01-19T14:26:43.321Z,98954.38
2023-01-19T14:29:57.388Z,98973.28
2023-01-19T14:33:30.084Z,98977.63
2023-01-19T14:36:44.143Z,98992.97
2023-01-19T14:39:59.853Z,98988.84
2023-01-19T14:43:15.209Z,98993.09
2023-01-19T14:46:29.217Z,99013.72
2023-01-19T14:49:43.189Z,99006.69
2023-01-19T14:52:57.792Z,99008.38
2023-01-19T14:56:11.716Z,99028.66
2023-01-19T14:59:26.743Z,99037.84
2023-01-19T15:02:40.618Z,99048.28
2023-01-19T15:05:54.711Z,99055.31
2023-01-19T15:09:10.190Z,99057.91
2023-01-19T15:12:24.159Z,99069.25
2023-01-19T15:15:39.172Z,99071.78
2023-01-19T15:18:53.096Z,99064.13
2023-01-19T15:22:12.121Z,99049.22
2023-01-19T15:25:27.006Z,99043.13
2023-01-19T15:28:41.097Z,99039.09
2023-01-19T15:31:56.469Z,99034.03
2023-01-19T15:35:14.519Z,99043.88
2023-01-19T15:38:28.491Z,99049.88
2023-01-19T15:41:42.089Z,99057.97
2023-01-19T15:44:56.005Z,99061.09
2023-01-19T15:48:12.108Z,99066.72
2023-01-19T15:51:26.886Z,99091.69
2023-01-19T15:54:40.864Z,99103.16
2023-01-19T15:57:55.203Z,99123.19
2023-01-19T16:01:12.286Z,99128.44
2023-01-19T16:04:27.766Z,99140.47
2023-01-19T16:07:41.715Z,99138.97
2023-01-19T16:10:55.755Z,99138.28
2023-01-19T16:14:09.769Z,99158.44
2023-01-19T16:17:23.376Z,99164.19
2023-01-19T16:20:38.255Z,99168.09
2023-01-19T16:23:51.828Z,99174.69
2023-01-19T16:27:05.384Z,99168.19
